Time;durP1;ratioP1;P1;durP2;ratioP2;P2;SDS_P1;SDS_P2;PMS_P1;PMS_P2;Temp;Humidity;BMP_temperature;BMP_pressure;BME280_temperature;BME280_humidity;BME280_pressure;Samples;Min_cycle;Max_cycle;Signal;HPM_P1;HPM_P2
2022/03/07 00:01:04;;;;;;;10.00;7.60;;;;;;;;;;4956831;29;20075;-72
2022/03/07 00:03:35;;;;;;;11.23;8.68;;;;;;;;;;4955879;29;20138;-72
2022/03/07 00:06:12;;;;;;;10.73;8.07;;;;;;;;;;4953747;29;20048;-72
2022/03/07 00:08:39;;;;;;;10.15;8.20;;;;;;;;;;4964322;29;20146;-71
2022/03/07 00:11:09;;;;;;;10.80;7.57;;;;;;;;;;4954975;28;20058;-71
2022/03/07 00:13:43;;;;;;;10.63;7.63;;;;;;;;;;4961628;28;20060;-71
2022/03/07 00:16:20;;;;;;;10.38;7.90;;;;;;;;;;4963701;29;20070;-72
2022/03/07 00:19:19;;;;;;;8.93;7.75;;;;;;;;;;4953680;29;20062;-72
2022/03/07 00:21:51;;;;;;;10.43;7.88;;;;;;;;;;4953481;28;20115;-71
2022/03/07 00:24:19;;;;;;;9.77;7.38;;;;;;;;;;4965123;29;20062;-71
2022/03/07 00:26:46;;;;;;;11.02;8.05;;;;;;;;;;4964149;29;20054;-72
2022/03/07 00:29:13;;;;;;;9.57;7.53;;;;;;;;;;4944743;29;20526;-71
2022/03/07 00:31:40;;;;;;;9.27;7.30;;;;;;;;;;4945642;28;20452;-72
2022/03/07 00:34:07;;;;;;;9.80;7.68;;;;;;;;;;4941386;29;20503;-72
2022/03/07 00:36:33;;;;;;;10.63;7.45;;;;;;;;;;4945450;29;20047;-72
2022/03/07 00:39:00;;;;;;;11.48;7.28;;;;;;;;;;4940927;29;20048;-71
2022/03/07 00:41:26;;;;;;;9.23;6.95;;;;;;;;;;4944658;28;20110;-72
2022/03/07 00:43:53;;;;;;;9.85;7.50;;;;;;;;;;4944087;28;20551;-72
2022/03/07 00:46:20;;;;;;;8.65;7.63;;;;;;;;;;4943585;29;20130;-71
2022/03/07 00:48:46;;;;;;;9.30;7.18;;;;;;;;;;4941074;29;20426;-72
2022/03/07 00:51:13;;;;;;;8.02;7.22;;;;;;;;;;4941840;28;20044;-72
2022/03/07 00:53:40;;;;;;;9.43;7.55;;;;;;;;;;4950918;29;20055;-72
2022/03/07 00:56:07;;;;;;;11.15;7.80;;;;;;;;;;4944116;28;20474;-72
2022/03/07 00:58:34;;;;;;;10.07;7.43;;;;;;;;;;4941158;29;20133;-72
2022/03/07 01:01:00;;;;;;;12.23;8.18;;;;;;;;;;4941142;29;20568;-71
2022/03/07 01:03:27;;;;;;;9.15;7.47;;;;;;;;;;4940557;29;20057;-72
2022/03/07 01:05:54;;;;;;;9.63;7.55;;;;;;;;;;4941277;28;20305;-72
2022/03/07 01:08:22;;;;;;;8.60;6.78;;;;;;;;;;4943287;29;20126;-72
2022/03/07 01:10:49;;;;;;;11.35;7.80;;;;;;;;;;4940334;28;20059;-72
2022/03/07 01:13:16;;;;;;;8.05;6.68;;;;;;;;;;4944365;29;20051;-72
2022/03/07 01:15:43;;;;;;;11.45;8.02;;;;;;;;;;4940511;29;20044;-72
2022/03/07 01:18:12;;;;;;;8.60;7.63;;;;;;;;;;4942215;29;20051;-72
2022/03/07 01:20:39;;;;;;;8.50;7.13;;;;;;;;;;4940214;28;20047;-72
2022/03/07 01:23:06;;;;;;;8.80;7.32;;;;;;;;;;4941093;28;20047;-72
2022/03/07 01:25:32;;;;;;;10.63;7.32;;;;;;;;;;4940392;29;20098;-72
2022/03/07 01:27:59;;;;;;;10.20;7.30;;;;;;;;;;4941750;29;20455;-72
2022/03/07 01:30:26;;;;;;;10.27;8.32;;;;;;;;;;4940216;29;20107;-72
2022/03/07 01:32:52;;;;;;;10.57;7.03;;;;;;;;;;4941728;28;20043;-72
2022/03/07 01:35:22;;;;;;;8.40;7.18;;;;;;;;;;4943478;29;20169;-72
2022/03/07 01:37:49;;;;;;;11.93;7.30;;;;;;;;;;4940871;29;20039;-72
2022/03/07 01:40:15;;;;;;;9.52;6.50;;;;;;;;;;4941610;28;20521;-72
2022/03/07 01:42:42;;;;;;;9.65;6.75;;;;;;;;;;4939673;28;20571;-72
2022/03/07 01:45:18;;;;;;;10.20;7.05;;;;;;;;;;4945150;29;20202;-72
2022/03/07 01:47:45;;;;;;;9.30;7.18;;;;;;;;;;4940184;29;20047;-72
2022/03/07 01:50:14;;;;;;;15.13;9.68;;;;;;;;;;4945014;28;20458;-72
2022/03/07 01:52:42;;;;;;;23.92;12.77;;;;;;;;;;4941568;28;20455;-72
2022/03/07 01:55:09;;;;;;;23.05;12.40;;;;;;;;;;4941063;28;20051;-72
2022/03/07 01:57:37;;;;;;;30.50;14.45;;;;;;;;;;4940805;29;20048;-72
2022/03/07 02:00:09;;;;;;;9.18;7.82;;;;;;;;;;4941310;28;20502;-72
2022/03/07 02:02:36;;;;;;;9.50;6.43;;;;;;;;;;4942428;29;20051;-72
2022/03/07 02:05:04;;;;;;;9.70;7.35;;;;;;;;;;4941828;29;20295;-72
2022/03/07 02:07:31;;;;;;;9.38;7.53;;;;;;;;;;4941647;29;20102;-72
2022/03/07 02:09:58;;;;;;;9.15;7.18;;;;;;;;;;4942356;29;20059;-72
2022/03/07 02:12:25;;;;;;;9.05;7.07;;;;;;;;;;4941698;29;20055;-72
2022/03/07 02:14:52;;;;;;;11.23;7.28;;;;;;;;;;4939364;29;20056;-72
2022/03/07 02:17:18;;;;;;;9.88;7.93;;;;;;;;;;4941314;28;20058;-72
2022/03/07 02:19:45;;;;;;;11.20;8.52;;;;;;;;;;4939617;29;20056;-71
2022/03/07 02:22:15;;;;;;;9.15;7.80;;;;;;;;;;4940794;28;20047;-72
2022/03/07 02:24:43;;;;;;;9.73;8.02;;;;;;;;;;4941052;29;20051;-72
2022/03/07 02:27:11;;;;;;;13.18;7.97;;;;;;;;;;4939096;29;20095;-72
2022/03/07 02:29:38;;;;;;;9.90;8.30;;;;;;;;;;4943949;29;20098;-71
2022/03/07 02:32:06;;;;;;;8.93;7.70;;;;;;;;;;4944608;28;20099;-72
2022/03/07 02:34:32;;;;;;;11.02;8.60;;;;;;;;;;4946922;29;20051;-72
2022/03/07 02:36:59;;;;;;;10.73;8.00;;;;;;;;;;4945743;29;20043;-72
2022/03/07 02:39:25;;;;;;;12.15;9.00;;;;;;;;;;4944717;29;20577;-72
2022/03/07 02:41:53;;;;;;;8.85;7.60;;;;;;;;;;4948478;28;20114;-72
2022/03/07 02:44:20;;;;;;;14.50;8.75;;;;;;;;;;4944572;29;20176;-72
2022/03/07 02:46:46;;;;;;;11.05;8.48;;;;;;;;;;4942885;29;20526;-72
2022/03/07 02:49:13;;;;;;;11.23;8.45;;;;;;;;;;4944810;29;20106;-72
2022/03/07 02:51:43;;;;;;;10.30;8.18;;;;;;;;;;4943890;28;20194;-72
2022/03/07 02:54:09;;;;;;;9.95;8.35;;;;;;;;;;4944167;28;20094;-72
2022/03/07 02:56:37;;;;;;;11.55;9.30;;;;;;;;;;4943952;29;20095;-72
2022/03/07 02:59:04;;;;;;;10.75;7.88;;;;;;;;;;4943040;28;20052;-72
2022/03/07 03:01:30;;;;;;;10.45;7.82;;;;;;;;;;4959070;28;20047;-72
2022/03/07 03:03:57;;;;;;;11.70;8.50;;;;;;;;;;4945497;29;20055;-72
2022/03/07 03:06:24;;;;;;;11.43;8.55;;;;;;;;;;4945371;29;20051;-72
2022/03/07 03:08:51;;;;;;;10.32;8.13;;;;;;;;;;4942527;29;20466;-72
2022/03/07 03:11:17;;;;;;;11.60;9.55;;;;;;;;;;4947238;29;20341;-72
2022/03/07 03:13:44;;;;;;;12.10;9.27;;;;;;;;;;4942419;29;20052;-72
2022/03/07 03:16:10;;;;;;;11.48;9.00;;;;;;;;;;4947085;29;20047;-72
2022/03/07 03:18:37;;;;;;;12.25;8.98;;;;;;;;;;4942852;29;20062;-72
2022/03/07 03:21:04;;;;;;;11.88;9.05;;;;;;;;;;4944761;28;20043;-72
2022/03/07 03:23:30;;;;;;;12.25;9.50;;;;;;;;;;4942594;29;20102;-72
2022/03/07 03:25:57;;;;;;;10.20;9.10;;;;;;;;;;4944149;29;20556;-72
2022/03/07 03:28:24;;;;;;;12.07;9.05;;;;;;;;;;4942104;29;20055;-72
2022/03/07 03:30:53;;;;;;;12.98;9.35;;;;;;;;;;4947493;28;20047;-72
2022/03/07 03:33:21;;;;;;;11.95;9.38;;;;;;;;;;4943276;29;20055;-71
2022/03/07 03:35:48;;;;;;;11.35;8.65;;;;;;;;;;4942307;28;20067;-71
2022/03/07 03:38:14;;;;;;;18.88;9.88;;;;;;;;;;4947218;29;20039;-72
2022/03/07 03:40:41;;;;;;;11.50;8.98;;;;;;;;;;4941976;29;20048;-72
2022/03/07 03:43:08;;;;;;;11.38;8.57;;;;;;;;;;4946540;29;20055;-72
2022/03/07 03:45:34;;;;;;;12.50;9.32;;;;;;;;;;4941491;28;20098;-72
2022/03/07 03:48:01;;;;;;;13.82;9.13;;;;;;;;;;4945920;29;20095;-72
2022/03/07 03:50:28;;;;;;;13.45;9.85;;;;;;;;;;4941493;29;20052;-72
2022/03/07 03:52:55;;;;;;;13.02;8.90;;;;;;;;;;4943088;29;20466;-72
2022/03/07 03:55:21;;;;;;;12.65;9.50;;;;;;;;;;4946725;29;20403;-71
2022/03/07 03:57:48;;;;;;;14.80;9.68;;;;;;;;;;4943380;29;20043;-71
2022/03/07 04:00:16;;;;;;;12.48;9.32;;;;;;;;;;4941800;29;20047;-71
2022/03/07 04:02:43;;;;;;;14.70;10.27;;;;;;;;;;4943625;29;20051;-72
2022/03/07 04:05:11;;;;;;;15.30;10.65;;;;;;;;;;4945581;29;20459;-72
2022/03/07 04:07:38;;;;;;;12.88;9.75;;;;;;;;;;4950183;28;20102;-72
2022/03/07 04:10:06;;;;;;;12.85;9.68;;;;;;;;;;4950164;28;20515;-72
2022/03/07 04:12:33;;;;;;;14.27;10.02;;;;;;;;;;4947947;29;20346;-72
2022/03/07 04:14:59;;;;;;;14.40;10.25;;;;;;;;;;4952485;29;20052;-72
2022/03/07 04:17:26;;;;;;;14.63;10.25;;;;;;;;;;4951273;29;20102;-72
2022/03/07 04:19:53;;;;;;;13.43;9.70;;;;;;;;;;4950118;29;20043;-72
2022/03/07 04:22:19;;;;;;;14.25;9.80;;;;;;;;;;4951767;28;20102;-72
2022/03/07 04:24:46;;;;;;;14.07;10.50;;;;;;;;;;4972680;23;20048;-69
2022/03/07 04:27:12;;;;;;;14.70;10.68;;;;;;;;;;4947944;29;20043;-66
2022/03/07 04:29:39;;;;;;;14.02;10.38;;;;;;;;;;4947151;28;20125;-66
2022/03/07 04:32:06;;;;;;;15.60;10.38;;;;;;;;;;4944197;28;20402;-66
2022/03/07 04:34:32;;;;;;;13.68;10.13;;;;;;;;;;4944151;29;20051;-65
2022/03/07 04:36:59;;;;;;;16.50;10.60;;;;;;;;;;4949292;28;20098;-66
2022/03/07 04:39:27;;;;;;;14.45;10.38;;;;;;;;;;4949290;29;20051;-66
2022/03/07 04:41:53;;;;;;;15.40;10.95;;;;;;;;;;4946942;28;20087;-66
2022/03/07 04:44:20;;;;;;;15.82;11.20;;;;;;;;;;4942734;28;20051;-66
2022/03/07 04:46:47;;;;;;;15.35;10.85;;;;;;;;;;4941617;29;20486;-66
2022/03/07 04:49:14;;;;;;;15.57;11.45;;;;;;;;;;4941870;29;20142;-65
2022/03/07 04:51:45;;;;;;;16.27;11.20;;;;;;;;;;4941480;29;20502;-65
2022/03/07 04:54:13;;;;;;;14.57;11.45;;;;;;;;;;4944525;28;20055;-65
2022/03/07 04:56:43;;;;;;;16.85;11.60;;;;;;;;;;4941643;29;20587;-66
2022/03/07 04:59:13;;;;;;;14.43;11.23;;;;;;;;;;4940906;29;20048;-65
2022/03/07 05:01:40;;;;;;;14.73;11.55;;;;;;;;;;4942643;29;20054;-65
2022/03/07 05:04:07;;;;;;;16.55;11.02;;;;;;;;;;4940561;28;20086;-65
2022/03/07 05:06:34;;;;;;;16.98;11.38;;;;;;;;;;4946761;29;20051;-65
2022/03/07 05:09:01;;;;;;;16.77;11.60;;;;;;;;;;4940985;29;20051;-66
2022/03/07 05:11:27;;;;;;;19.55;11.68;;;;;;;;;;4940996;28;20051;-66
2022/03/07 05:13:54;;;;;;;16.40;12.32;;;;;;;;;;4941549;29;20059;-66
2022/03/07 05:16:21;;;;;;;15.45;11.50;;;;;;;;;;4942677;29;20056;-67
2022/03/07 05:18:49;;;;;;;16.23;11.23;;;;;;;;;;4941572;29;20047;-66
2022/03/07 05:21:16;;;;;;;16.30;11.70;;;;;;;;;;4940656;28;20123;-66
2022/03/07 05:23:42;;;;;;;13.70;10.55;;;;;;;;;;4944530;29;20052;-66
2022/03/07 05:26:09;;;;;;;15.00;11.25;;;;;;;;;;4940230;29;20052;-67
2022/03/07 05:28:35;;;;;;;15.60;11.38;;;;;;;;;;4943715;29;20043;-66
2022/03/07 05:31:02;;;;;;;19.38;12.27;;;;;;;;;;4940164;29;20095;-65
2022/03/07 05:33:29;;;;;;;16.85;11.48;;;;;;;;;;4941828;28;20051;-66
2022/03/07 05:35:55;;;;;;;15.25;10.90;;;;;;;;;;4940483;29;20051;-66
2022/03/07 05:38:22;;;;;;;20.50;11.50;;;;;;;;;;4942046;29;20091;-66
2022/03/07 05:40:49;;;;;;;16.33;11.85;;;;;;;;;;4944627;29;20075;-65
2022/03/07 05:43:16;;;;;;;18.63;11.20;;;;;;;;;;4941282;29;20055;-67
2022/03/07 05:45:43;;;;;;;18.05;11.50;;;;;;;;;;4940185;29;20131;-67
2022/03/07 05:48:11;;;;;;;14.48;10.57;;;;;;;;;;4943279;29;20051;-66
2022/03/07 05:50:37;;;;;;;16.27;10.88;;;;;;;;;;4940317;29;20185;-66
2022/03/07 05:53:04;;;;;;;15.23;11.25;;;;;;;;;;4941031;28;20058;-66
2022/03/07 05:55:31;;;;;;;15.20;11.10;;;;;;;;;;4941176;29;20121;-66
2022/03/07 05:58:00;;;;;;;15.23;10.35;;;;;;;;;;4940524;29;20102;-65
2022/03/07 06:00:28;;;;;;;15.75;10.27;;;;;;;;;;4941184;29;20047;-66
2022/03/07 06:02:55;;;;;;;14.82;10.65;;;;;;;;;;4943316;28;20410;-66
2022/03/07 06:05:22;;;;;;;13.55;10.10;;;;;;;;;;4941608;28;20058;-66
2022/03/07 06:07:49;;;;;;;13.32;9.70;;;;;;;;;;4939964;29;20102;-65
2022/03/07 06:10:16;;;;;;;20.48;13.73;;;;;;;;;;4943558;29;20090;-66
2022/03/07 06:12:43;;;;;;;20.92;14.75;;;;;;;;;;4942576;29;20083;-65
2022/03/07 06:15:15;;;;;;;18.98;13.23;;;;;;;;;;4949663;28;20519;-66
2022/03/07 06:17:54;;;;;;;15.27;12.20;;;;;;;;;;4945749;29;20573;-65
2022/03/07 06:20:21;;;;;;;15.45;12.18;;;;;;;;;;4948807;29;20058;-66
2022/03/07 06:22:48;;;;;;;16.05;9.82;;;;;;;;;;4946009;28;20051;-65
2022/03/07 06:25:15;;;;;;;13.13;9.32;;;;;;;;;;4945323;29;20454;-66
2022/03/07 06:27:42;;;;;;;13.27;9.27;;;;;;;;;;4947588;29;20091;-66
2022/03/07 06:30:09;;;;;;;14.13;9.30;;;;;;;;;;4949299;28;20047;-65
2022/03/07 06:32:36;;;;;;;11.52;8.70;;;;;;;;;;4942993;29;20055;-66
2022/03/07 06:35:04;;;;;;;12.10;8.68;;;;;;;;;;4943675;28;20277;-66
2022/03/07 06:37:31;;;;;;;13.82;9.57;;;;;;;;;;4944746;28;20120;-66
2022/03/07 06:39:57;;;;;;;10.68;8.30;;;;;;;;;;4944396;29;20051;-66
2022/03/07 06:42:24;;;;;;;11.65;8.35;;;;;;;;;;4947248;28;20111;-65
2022/03/07 06:44:51;;;;;;;12.73;8.77;;;;;;;;;;4948768;28;20055;-67
2022/03/07 06:47:17;;;;;;;13.18;9.00;;;;;;;;;;4943220;29;20044;-66
2022/03/07 06:49:45;;;;;;;12.27;8.30;;;;;;;;;;4944912;29;20680;-66
2022/03/07 06:52:12;;;;;;;12.52;8.10;;;;;;;;;;4942943;28;20052;-66
2022/03/07 06:54:39;;;;;;;11.15;8.20;;;;;;;;;;4944993;29;20051;-66
2022/03/07 06:57:05;;;;;;;12.05;8.40;;;;;;;;;;4946766;29;20099;-66
2022/03/07 06:59:32;;;;;;;11.20;8.52;;;;;;;;;;4944839;28;20490;-66
2022/03/07 07:01:58;;;;;;;10.45;7.85;;;;;;;;;;4943154;29;20114;-66
2022/03/07 07:04:25;;;;;;;10.85;7.70;;;;;;;;;;4941971;28;20051;-66
2022/03/07 07:06:57;;;;;;;11.07;7.53;;;;;;;;;;4941005;29;20515;-66
2022/03/07 07:09:24;;;;;;;11.55;7.70;;;;;;;;;;4943277;29;20055;-65
2022/03/07 07:11:50;;;;;;;11.30;7.85;;;;;;;;;;4941665;29;20502;-64
2022/03/07 07:14:17;;;;;;;13.50;8.48;;;;;;;;;;4944194;29;20058;-65
2022/03/07 07:16:43;;;;;;;15.77;7.82;;;;;;;;;;4943985;29;20119;-65
2022/03/07 07:19:10;;;;;;;10.05;7.72;;;;;;;;;;4942775;29;20047;-66
2022/03/07 07:21:37;;;;;;;9.60;7.85;;;;;;;;;;4942086;29;20453;-67
2022/03/07 07:24:04;;;;;;;9.82;7.85;;;;;;;;;;4940566;28;20106;-66
2022/03/07 07:26:30;;;;;;;9.43;7.63;;;;;;;;;;4942394;29;20052;-66
2022/03/07 07:29:03;;;;;;;10.38;7.22;;;;;;;;;;4945004;29;20130;-66
2022/03/07 07:31:29;;;;;;;11.05;7.72;;;;;;;;;;4942424;28;20055;-65
2022/03/07 07:33:56;;;;;;;11.05;8.27;;;;;;;;;;4940812;28;20489;-67
2022/03/07 07:36:23;;;;;;;11.10;8.48;;;;;;;;;;4941489;29;20397;-66
2022/03/07 07:38:49;;;;;;;11.52;7.85;;;;;;;;;;4942505;29;20418;-65
2022/03/07 07:41:16;;;;;;;12.73;8.65;;;;;;;;;;4941640;29;20055;-65
2022/03/07 07:43:43;;;;;;;14.15;8.05;;;;;;;;;;4940126;29;20106;-66
2022/03/07 07:46:09;;;;;;;14.55;9.07;;;;;;;;;;4941420;28;20465;-65
2022/03/07 07:48:36;;;;;;;11.25;9.07;;;;;;;;;;4940621;29;21155;-66
2022/03/07 07:51:03;;;;;;;14.50;8.50;;;;;;;;;;4940335;28;20051;-67
2022/03/07 07:53:33;;;;;;;10.18;8.40;;;;;;;;;;4941628;28;20047;-66
2022/03/07 07:56:01;;;;;;;11.45;8.43;;;;;;;;;;4938253;29;20212;-67
2022/03/07 07:58:28;;;;;;;11.30;8.15;;;;;;;;;;4942176;29;20410;-66
2022/03/07 08:00:55;;;;;;;25.08;8.73;;;;;;;;;;4938175;29;20478;-67
2022/03/07 08:03:22;;;;;;;12.48;8.88;;;;;;;;;;4941307;28;20051;-67
2022/03/07 08:05:49;;;;;;;13.32;8.68;;;;;;;;;;4940425;29;20126;-66
2022/03/07 08:08:16;;;;;;;12.32;8.30;;;;;;;;;;4946270;28;20501;-67
2022/03/07 08:10:42;;;;;;;14.27;9.52;;;;;;;;;;4939196;29;20062;-66
2022/03/07 08:13:09;;;;;;;13.55;8.32;;;;;;;;;;4941430;29;20502;-67
2022/03/07 08:15:36;;;;;;;13.80;9.07;;;;;;;;;;4941976;29;20051;-67
2022/03/07 08:18:03;;;;;;;13.88;9.30;;;;;;;;;;4938843;29;20409;-67
2022/03/07 08:20:29;;;;;;;13.98;8.98;;;;;;;;;;4940198;29;20051;-66
2022/03/07 08:22:56;;;;;;;13.98;8.82;;;;;;;;;;4940264;28;20070;-66
2022/03/07 08:25:23;;;;;;;13.55;8.82;;;;;;;;;;4939932;28;20052;-66
2022/03/07 08:27:50;;;;;;;14.00;8.95;;;;;;;;;;4940320;28;20075;-66
2022/03/07 08:30:18;;;;;;;13.05;9.10;;;;;;;;;;4940435;29;20082;-66
2022/03/07 08:32:45;;;;;;;12.27;8.75;;;;;;;;;;4939039;28;20063;-67
2022/03/07 08:35:13;;;;;;;12.60;8.88;;;;;;;;;;4941027;28;20052;-67
2022/03/07 08:37:45;;;;;;;12.07;9.05;;;;;;;;;;4939065;29;20126;-65
2022/03/07 08:40:13;;;;;;;11.30;8.63;;;;;;;;;;4940753;28;20060;-67
2022/03/07 08:42:40;;;;;;;13.10;8.85;;;;;;;;;;4939265;29;20499;-67
2022/03/07 08:45:07;;;;;;;14.45;9.45;;;;;;;;;;4942568;28;20094;-66
2022/03/07 08:47:36;;;;;;;12.38;8.38;;;;;;;;;;4940896;29;20600;-67
2022/03/07 08:50:03;;;;;;;11.52;8.95;;;;;;;;;;4939416;28;20098;-68
2022/03/07 08:52:30;;;;;;;14.38;9.65;;;;;;;;;;4940648;29;20098;-68
2022/03/07 08:54:57;;;;;;;13.40;9.05;;;;;;;;;;4940323;28;20510;-67
2022/03/07 08:57:23;;;;;;;12.73;9.43;;;;;;;;;;4942457;29;20058;-65
2022/03/07 08:59:50;;;;;;;11.52;8.40;;;;;;;;;;4940288;29;21237;-71
2022/03/07 09:02:17;;;;;;;12.63;9.20;;;;;;;;;;4937566;29;20507;-71
2022/03/07 09:04:43;;;;;;;15.70;9.10;;;;;;;;;;4939337;28;20055;-64
2022/03/07 09:07:10;;;;;;;11.93;9.02;;;;;;;;;;4944812;29;20043;-67
2022/03/07 09:09:37;;;;;;;13.30;9.38;;;;;;;;;;4939764;29;20095;-65
2022/03/07 09:12:04;;;;;;;13.82;9.23;;;;;;;;;;4941909;29;20043;-66
2022/03/07 09:14:31;;;;;;;12.75;8.77;;;;;;;;;;4944660;29;20105;-68
2022/03/07 09:16:57;;;;;;;12.10;9.32;;;;;;;;;;4940701;29;20048;-70
2022/03/07 09:19:25;;;;;;;11.15;8.90;;;;;;;;;;4942842;29;20052;-72
2022/03/07 09:21:52;;;;;;;13.77;9.75;;;;;;;;;;4941527;29;20102;-71
2022/03/07 09:24:20;;;;;;;11.13;8.52;;;;;;;;;;4942732;29;20055;-69
2022/03/07 09:26:47;;;;;;;11.35;8.40;;;;;;;;;;4946234;29;20047;-69
2022/03/07 09:29:13;;;;;;;15.02;8.88;;;;;;;;;;4942421;29;20099;-70
2022/03/07 09:31:40;;;;;;;13.88;8.95;;;;;;;;;;4951436;29;20109;-68
2022/03/07 09:34:08;;;;;;;14.10;8.95;;;;;;;;;;4950014;28;20112;-73
2022/03/07 09:36:36;;;;;;;12.80;9.82;;;;;;;;;;4943660;28;20098;-65
2022/03/07 09:39:04;;;;;;;12.77;9.18;;;;;;;;;;4941774;29;20048;-66
2022/03/07 09:41:30;;;;;;;15.57;9.23;;;;;;;;;;4939337;29;20055;-64
2022/03/07 09:43:57;;;;;;;15.70;9.68;;;;;;;;;;4941587;28;20059;-65
2022/03/07 09:46:24;;;;;;;15.80;10.00;;;;;;;;;;4939715;29;20051;-67
2022/03/07 09:48:50;;;;;;;13.43;9.18;;;;;;;;;;4940828;29;20047;-65
2022/03/07 09:51:17;;;;;;;14.00;9.07;;;;;;;;;;4922902;29;20056;-65
2022/03/07 09:53:43;;;;;;;13.27;8.77;;;;;;;;;;4941291;29;20047;-65
2022/03/07 09:56:10;;;;;;;12.00;8.93;;;;;;;;;;4940370;29;20044;-65
2022/03/07 09:58:37;;;;;;;10.63;8.02;;;;;;;;;;4943192;29;20044;-64
2022/03/07 10:01:13;;;;;;;12.88;8.48;;;;;;;;;;4940316;29;20083;-65
2022/03/07 10:03:45;;;;;;;13.00;9.10;;;;;;;;;;4939395;28;20232;-65
2022/03/07 10:06:13;;;;;;;15.32;9.38;;;;;;;;;;4941438;28;20110;-65
2022/03/07 10:08:49;;;;;;;15.55;9.57;;;;;;;;;;4939724;29;20051;-65
2022/03/07 10:11:16;;;;;;;14.02;9.23;;;;;;;;;;4943261;29;20055;-65
2022/03/07 10:13:53;;;;;;;12.00;8.68;;;;;;;;;;4941858;29;20506;-66
2022/03/07 10:16:20;;;;;;;12.05;8.85;;;;;;;;;;4944205;28;20055;-66
2022/03/07 10:18:51;;;;;;;11.57;8.55;;;;;;;;;;4945730;29;20054;-66
2022/03/07 10:21:23;;;;;;;13.27;8.40;;;;;;;;;;4943550;29;20054;-66
2022/03/07 10:23:56;;;;;;;12.52;8.40;;;;;;;;;;4967669;23;20100;-65
2022/03/07 10:26:23;;;;;;;12.00;8.52;;;;;;;;;;4930985;29;20056;-66
2022/03/07 10:28:54;;;;;;;9.75;7.43;;;;;;;;;;4932975;29;20458;-67
2022/03/07 10:31:45;;;;;;;11.95;8.73;;;;;;;;;;4944989;29;20056;-67
2022/03/07 10:34:12;;;;;;;10.50;8.15;;;;;;;;;;4932011;29;20052;-69
2022/03/07 10:36:43;;;;;;;10.43;8.23;;;;;;;;;;4932655;29;20099;-67
2022/03/07 10:39:12;;;;;;;10.70;7.75;;;;;;;;;;4911240;29;20065;-68
2022/03/07 10:41:46;;;;;;;11.70;8.27;;;;;;;;;;4932846;29;20102;-69
2022/03/07 10:44:39;;;;;;;11.15;8.48;;;;;;;;;;4910603;29;20048;-68
2022/03/07 10:47:09;;;;;;;11.73;8.25;;;;;;;;;;4929796;29;20044;-67
2022/03/07 10:49:45;;;;;;;10.93;7.88;;;;;;;;;;4931600;29;20044;-68
2022/03/07 10:52:11;;;;;;;11.35;8.10;;;;;;;;;;4929843;29;20071;-67
2022/03/07 10:54:38;;;;;;;10.88;8.25;;;;;;;;;;4933285;29;20107;-68
2022/03/07 10:57:06;;;;;;;9.63;7.95;;;;;;;;;;4919551;29;20069;-68
2022/03/07 10:59:34;;;;;;;14.00;8.35;;;;;;;;;;4933217;29;20270;-68
2022/03/07 11:02:14;;;;;;;13.43;7.95;;;;;;;;;;4935342;29;20130;-66
2022/03/07 11:04:42;;;;;;;13.35;9.20;;;;;;;;;;4933276;29;20060;-67
2022/03/07 11:07:09;;;;;;;10.55;8.32;;;;;;;;;;4935014;29;20044;-67
2022/03/07 11:09:36;;;;;;;9.25;7.45;;;;;;;;;;4936007;29;20047;-66
2022/03/07 11:12:04;;;;;;;8.38;7.57;;;;;;;;;;4937453;29;20495;-66
2022/03/07 11:14:31;;;;;;;10.45;8.27;;;;;;;;;;4935886;29;20048;-67
2022/03/07 11:16:58;;;;;;;10.82;8.38;;;;;;;;;;4917130;29;20052;-67
2022/03/07 11:19:26;;;;;;;9.48;8.00;;;;;;;;;;4918681;29;20044;-71
2022/03/07 11:21:55;;;;;;;9.52;7.53;;;;;;;;;;4934767;29;20051;-66
2022/03/07 11:24:23;;;;;;;10.82;8.32;;;;;;;;;;4927129;29;20052;-68
2022/03/07 11:26:52;;;;;;;13.75;8.07;;;;;;;;;;4934342;29;20052;-71
2022/03/07 11:29:20;;;;;;;8.90;7.45;;;;;;;;;;4918370;29;20103;-70
2022/03/07 11:31:48;;;;;;;11.40;8.18;;;;;;;;;;4918731;29;20044;-69
2022/03/07 11:34:15;;;;;;;9.85;7.57;;;;;;;;;;4919650;29;20114;-71
2022/03/07 11:36:48;;;;;;;10.35;7.80;;;;;;;;;;4935729;29;20059;-74
2022/03/07 11:39:28;;;;;;;;;;;;;;;;;;4921250;29;20110;-70
2022/03/07 11:41:54;;;;;;;12.15;8.60;;;;;;;;;;4934929;29;20374;-73
2022/03/07 11:44:24;;;;;;;14.23;8.20;;;;;;;;;;4934277;29;20064;-66
2022/03/07 11:46:51;;;;;;;10.90;8.32;;;;;;;;;;4933027;29;20044;-71
2022/03/07 11:49:26;;;;;;;14.73;9.57;;;;;;;;;;4935369;29;20132;-66
2022/03/07 11:52:03;;;;;;;10.73;8.45;;;;;;;;;;4934467;29;20047;-68
2022/03/07 11:54:30;;;;;;;11.15;7.80;;;;;;;;;;4935394;29;20060;-71
2022/03/07 11:57:10;;;;;;;11.55;8.20;;;;;;;;;;4918536;29;20056;-75
2022/03/07 11:59:38;;;;;;;14.70;8.95;;;;;;;;;;4935667;29;20059;-73
2022/03/07 12:02:06;;;;;;;11.95;8.20;;;;;;;;;;4919056;29;20079;-74
2022/03/07 12:04:43;;;;;;;11.10;8.25;;;;;;;;;;4934288;29;20047;-74
2022/03/07 12:07:10;;;;;;;11.70;8.75;;;;;;;;;;4933078;29;20467;-69
2022/03/07 12:09:39;;;;;;;10.38;8.73;;;;;;;;;;4918078;29;20047;-69
2022/03/07 12:12:11;;;;;;;12.88;9.30;;;;;;;;;;4917324;29;20043;-71
2022/03/07 12:14:40;;;;;;;11.48;8.25;;;;;;;;;;4933647;29;20518;-68
2022/03/07 12:17:17;;;;;;;9.85;7.97;;;;;;;;;;4934220;29;20047;-73
2022/03/07 12:19:52;;;;;;;9.70;8.70;;;;;;;;;;4934256;29;20047;-69
2022/03/07 12:22:19;;;;;;;9.55;8.48;;;;;;;;;;4918820;29;20605;-71
2022/03/07 12:24:46;;;;;;;11.63;8.75;;;;;;;;;;4935174;29;20430;-70
2022/03/07 12:27:13;;;;;;;9.93;8.23;;;;;;;;;;4934830;29;20430;-71
2022/03/07 12:29:41;;;;;;;10.63;8.80;;;;;;;;;;4933787;29;20071;-71
2022/03/07 12:32:09;;;;;;;10.63;8.02;;;;;;;;;;4933324;29;20562;-71
2022/03/07 12:34:40;;;;;;;10.15;8.02;;;;;;;;;;4931189;29;20142;-73
2022/03/07 12:37:17;;;;;;;11.32;7.85;;;;;;;;;;4938690;28;20328;-73
2022/03/07 12:39:47;;;;;;;12.75;8.75;;;;;;;;;;4902457;29;20609;-71
2022/03/07 12:42:22;;;;;;;12.20;8.38;;;;;;;;;;4918459;29;20056;-71
2022/03/07 12:44:49;;;;;;;12.13;8.02;;;;;;;;;;4933204;29;20062;-73
2022/03/07 12:47:19;;;;;;;9.90;8.00;;;;;;;;;;4931449;29;20055;-71
2022/03/07 12:49:49;;;;;;;9.75;7.95;;;;;;;;;;4918339;29;20075;-72
2022/03/07 12:52:30;;;;;;;9.25;8.25;;;;;;;;;;4917660;29;20056;-75
2022/03/07 12:54:57;;;;;;;11.10;7.95;;;;;;;;;;4902659;29;20119;-74
2022/03/07 12:57:25;;;;;;;9.10;7.47;;;;;;;;;;4948262;29;20056;-72
2022/03/07 13:00:00;;;;;;;9.85;7.80;;;;;;;;;;4917881;29;20052;-77
2022/03/07 13:02:43;;;;;;;10.48;8.65;;;;;;;;;;4889518;29;20071;-77
2022/03/07 13:05:11;;;;;;;9.98;7.93;;;;;;;;;;4905684;29;20103;-75
2022/03/07 13:07:39;;;;;;;9.57;7.88;;;;;;;;;;4913537;29;20056;-73
2022/03/07 13:10:11;;;;;;;9.43;7.55;;;;;;;;;;4881282;29;20060;-72
2022/03/07 13:12:40;;;;;;;9.82;8.10;;;;;;;;;;4906390;29;20055;-75
2022/03/07 13:15:08;;;;;;;8.45;7.60;;;;;;;;;;4905661;29;20052;-68
2022/03/07 13:17:34;;;;;;;11.10;7.97;;;;;;;;;;4913588;29;20052;-69
2022/03/07 13:20:02;;;;;;;9.57;8.38;;;;;;;;;;4914064;29;20438;-68
2022/03/07 13:22:29;;;;;;;9.35;7.90;;;;;;;;;;4914740;29;20051;-68
2022/03/07 13:24:58;;;;;;;8.75;7.82;;;;;;;;;;4898011;29;20056;-69
2022/03/07 13:27:25;;;;;;;8.52;7.45;;;;;;;;;;4905875;29;20056;-70
2022/03/07 13:30:07;;;;;;;10.48;8.98;;;;;;;;;;4928996;29;20056;-65
2022/03/07 13:32:39;;;;;;;8.85;7.82;;;;;;;;;;4914272;29;20119;-67
2022/03/07 13:35:07;;;;;;;9.23;8.25;;;;;;;;;;4921188;29;20519;-71
2022/03/07 13:37:42;;;;;;;12.88;8.52;;;;;;;;;;4899398;29;20460;-75
2022/03/07 13:40:15;;;;;;;9.43;8.40;;;;;;;;;;4911632;29;20048;-68
2022/03/07 13:42:45;;;;;;;10.13;8.30;;;;;;;;;;4921008;29;20052;-72
2022/03/07 13:45:14;;;;;;;14.68;8.95;;;;;;;;;;4894654;29;20424;-66
2022/03/07 13:47:41;;;;;;;10.23;8.70;;;;;;;;;;4914492;29;20076;-68
2022/03/07 13:50:10;;;;;;;11.18;8.23;;;;;;;;;;4904513;29;20104;-68
2022/03/07 13:52:42;;;;;;;10.23;8.32;;;;;;;;;;4903024;29;20466;-67
2022/03/07 13:55:15;;;;;;;9.23;8.15;;;;;;;;;;4914288;29;20120;-69
2022/03/07 13:57:44;;;;;;;11.00;7.90;;;;;;;;;;4914434;29;20381;-68
2022/03/07 14:00:18;;;;;;;9.15;8.15;;;;;;;;;;4897722;29;20105;-72
2022/03/07 14:02:49;;;;;;;9.48;7.68;;;;;;;;;;4904820;29;20111;-71
2022/03/07 14:05:18;;;;;;;12.13;8.38;;;;;;;;;;4913527;29;20056;-70
2022/03/07 14:07:55;;;;;;;10.20;9.10;;;;;;;;;;4913015;29;20048;-69
2022/03/07 14:10:42;;;;;;;8.85;7.57;;;;;;;;;;4913909;29;20135;-66
2022/03/07 14:13:09;;;;;;;9.48;8.57;;;;;;;;;;4920775;29;20123;-67
2022/03/07 14:15:40;;;;;;;10.93;8.73;;;;;;;;;;4911972;29;20055;-68
2022/03/07 14:18:09;;;;;;;12.43;8.70;;;;;;;;;;4897812;29;20044;-64
2022/03/07 14:20:38;;;;;;;9.00;8.10;;;;;;;;;;4913710;29;20803;-65
2022/03/07 14:23:06;;;;;;;9.50;8.43;;;;;;;;;;4913081;29;20056;-66
2022/03/07 14:25:33;;;;;;;10.02;9.00;;;;;;;;;;4914921;29;20056;-65
2022/03/07 14:28:00;;;;;;;10.55;8.82;;;;;;;;;;4915559;29;20059;-64
2022/03/07 14:30:28;;;;;;;9.30;8.38;;;;;;;;;;4912769;29;20342;-66
2022/03/07 14:32:54;;;;;;;10.43;8.25;;;;;;;;;;4916159;29;20056;-66
2022/03/07 14:35:21;;;;;;;9.48;8.45;;;;;;;;;;4922997;29;20064;-65
2022/03/07 14:37:48;;;;;;;9.82;8.82;;;;;;;;;;4917240;29;20096;-65